CCM62PM LFKJ-LFML
Flight info
| Callsign | CCM62PM |
|---|---|
| Flight time | 0h 42m |
| Altitude | 24000 |
| Route | TINOT |
| Aircraft | A20N/M-SDE2E3FGHIRWXY/LB1 |
Departure
| Time | 2026-05-06 15:23 |
|---|---|
| Airport | Ajaccio Napoléon Bonaparte airport (LFKJ) |
Arrival
| Time | 2026-05-06 16:05 |
|---|---|
| Airport | Marseille Provence Airport (LFML) |
| Time | Latitude | Longitude | Altitude | Speed | Heading |
|---|---|---|---|---|---|
| 2026-05-06 15:07 | 41.91856 | 8.79504 | 36 ft | 0 kts | 344° |
| 2026-05-06 15:19 | 41.91858 | 8.79505 | 36 ft | 1 kts | 24° |
| 2026-05-06 15:19 | 41.91853 | 8.79552 | 36 ft | 8 kts | 94° |
| 2026-05-06 15:20 | 41.91898 | 8.79606 | 35 ft | 10 kts | 24° |
| 2026-05-06 15:20 | 41.91971 | 8.79650 | 36 ft | 12 kts | 25° |
| 2026-05-06 15:20 | 41.92056 | 8.79704 | 36 ft | 14 kts | 25° |
| 2026-05-06 15:20 | 41.92152 | 8.79765 | 36 ft | 15 kts | 25° |
| 2026-05-06 15:21 | 41.92253 | 8.79827 | 36 ft | 16 kts | 25° |
| 2026-05-06 15:21 | 41.92356 | 8.79891 | 36 ft | 16 kts | 25° |
| 2026-05-06 15:21 | 41.92462 | 8.79956 | 36 ft | 17 kts | 25° |
| 2026-05-06 15:21 | 41.92571 | 8.80023 | 37 ft | 17 kts | 25° |
| 2026-05-06 15:22 | 41.92679 | 8.80092 | 37 ft | 17 kts | 25° |
| 2026-05-06 15:22 | 41.92799 | 8.80189 | 38 ft | 25 kts | 40° |
| 2026-05-06 15:22 | 41.92942 | 8.80382 | 40 ft | 29 kts | 50° |
| 2026-05-06 15:22 | 41.92884 | 8.80550 | 40 ft | 25 kts | 198° |
| 2026-05-06 15:23 | 41.92629 | 8.80391 | 38 ft | 73 kts | 206° |
| 2026-05-06 15:23 | 41.91945 | 8.79965 | 36 ft | 140 kts | 205° |
| 2026-05-06 15:23 | 41.91003 | 8.79373 | 484 ft | 154 kts | 206° |
| 2026-05-06 15:23 | 41.90070 | 8.78684 | 1183 ft | 156 kts | 216° |
| 2026-05-06 15:24 | 41.89205 | 8.77831 | 1861 ft | 159 kts | 216° |
| 2026-05-06 15:24 | 41.88274 | 8.76960 | 2355 ft | 170 kts | 216° |
| 2026-05-06 15:24 | 41.87268 | 8.76025 | 2813 ft | 184 kts | 216° |
| 2026-05-06 15:24 | 41.86165 | 8.75016 | 3247 ft | 201 kts | 216° |
| 2026-05-06 15:25 | 41.84943 | 8.73911 | 3612 ft | 224 kts | 215° |
| 2026-05-06 15:25 | 41.83592 | 8.72698 | 4110 ft | 243 kts | 215° |
| 2026-05-06 15:25 | 41.82131 | 8.71390 | 4644 ft | 261 kts | 215° |
| 2026-05-06 15:25 | 41.80601 | 8.70025 | 5397 ft | 269 kts | 215° |
| 2026-05-06 15:26 | 41.79054 | 8.68642 | 6317 ft | 271 kts | 216° |
| 2026-05-06 15:26 | 41.77482 | 8.67231 | 7252 ft | 272 kts | 216° |
| 2026-05-06 15:26 | 41.75939 | 8.65847 | 8170 ft | 273 kts | 216° |
| 2026-05-06 15:26 | 41.74359 | 8.64428 | 9117 ft | 273 kts | 217° |
| 2026-05-06 15:27 | 41.72982 | 8.62737 | 9992 ft | 271 kts | 237° |
| 2026-05-06 15:27 | 41.72216 | 8.60472 | 10683 ft | 278 kts | 257° |
| 2026-05-06 15:27 | 41.72156 | 8.57825 | 11078 ft | 298 kts | 279° |
| 2026-05-06 15:27 | 41.72954 | 8.55165 | 11567 ft | 317 kts | 297° |
| 2026-05-06 15:28 | 41.74067 | 8.52608 | 12377 ft | 320 kts | 296° |
| 2026-05-06 15:28 | 41.75153 | 8.50044 | 13170 ft | 322 kts | 295° |
| 2026-05-06 15:28 | 41.76254 | 8.47422 | 13920 ft | 326 kts | 295° |
| 2026-05-06 15:28 | 41.77372 | 8.44754 | 14619 ft | 331 kts | 295° |
| 2026-05-06 15:29 | 41.78498 | 8.42073 | 15288 ft | 335 kts | 295° |
| 2026-05-06 15:29 | 41.79637 | 8.39352 | 15968 ft | 340 kts | 295° |
| 2026-05-06 15:29 | 41.80796 | 8.36589 | 16646 ft | 344 kts | 294° |
| 2026-05-06 15:29 | 41.81957 | 8.33816 | 17317 ft | 347 kts | 293° |
| 2026-05-06 15:30 | 41.83129 | 8.30959 | 17971 ft | 349 kts | 291° |
| 2026-05-06 15:30 | 41.84163 | 8.28054 | 18657 ft | 350 kts | 288° |
| 2026-05-06 15:30 | 41.85115 | 8.25002 | 19317 ft | 353 kts | 286° |
| 2026-05-06 15:30 | 41.86038 | 8.21981 | 19943 ft | 355 kts | 286° |
| 2026-05-06 15:31 | 41.86971 | 8.18917 | 20609 ft | 357 kts | 286° |
| 2026-05-06 15:31 | 41.87913 | 8.15824 | 21283 ft | 358 kts | 285° |
| 2026-05-06 15:31 | 41.88851 | 8.12736 | 21895 ft | 361 kts | 285° |
| 2026-05-06 15:32 | 41.90738 | 8.06514 | 23065 ft | 365 kts | 285° |
| 2026-05-06 15:32 | 41.91703 | 8.03332 | 23631 ft | 367 kts | 284° |
| 2026-05-06 15:32 | 41.92657 | 8.00174 | 23919 ft | 369 kts | 284° |
| 2026-05-06 15:32 | 41.93628 | 7.96956 | 23941 ft | 369 kts | 284° |
| 2026-05-06 15:33 | 41.94587 | 7.93779 | 23946 ft | 369 kts | 284° |
| 2026-05-06 15:33 | 41.95544 | 7.90602 | 23943 ft | 369 kts | 284° |
| 2026-05-06 15:33 | 41.96500 | 7.87429 | 23938 ft | 368 kts | 285° |
| 2026-05-06 15:33 | 41.97451 | 7.84266 | 23938 ft | 368 kts | 285° |
| 2026-05-06 15:34 | 41.98407 | 7.81079 | 23938 ft | 371 kts | 285° |
| 2026-05-06 15:34 | 41.99395 | 7.77768 | 23941 ft | 388 kts | 285° |
| 2026-05-06 15:34 | 42.00410 | 7.74351 | 23942 ft | 404 kts | 285° |
| 2026-05-06 15:34 | 42.01471 | 7.70789 | 23938 ft | 419 kts | 285° |
| 2026-05-06 15:35 | 42.02569 | 7.67105 | 23931 ft | 433 kts | 286° |
| 2026-05-06 15:35 | 42.03710 | 7.63283 | 23928 ft | 445 kts | 286° |
| 2026-05-06 15:35 | 42.04865 | 7.59415 | 23931 ft | 455 kts | 286° |
| 2026-05-06 15:35 | 42.06050 | 7.55441 | 23930 ft | 460 kts | 286° |
| 2026-05-06 15:36 | 42.07236 | 7.51465 | 23929 ft | 460 kts | 286° |
| 2026-05-06 15:36 | 42.08418 | 7.47502 | 23929 ft | 460 kts | 286° |
| 2026-05-06 15:36 | 42.09613 | 7.43480 | 23934 ft | 460 kts | 286° |
| 2026-05-06 15:36 | 42.10798 | 7.39481 | 23935 ft | 460 kts | 286° |
| 2026-05-06 15:37 | 42.11978 | 7.35490 | 23933 ft | 460 kts | 286° |
| 2026-05-06 15:37 | 42.13144 | 7.31538 | 23931 ft | 460 kts | 285° |
| 2026-05-06 15:37 | 42.14317 | 7.27551 | 23929 ft | 460 kts | 285° |
| 2026-05-06 15:37 | 42.15501 | 7.23520 | 23927 ft | 460 kts | 286° |
| 2026-05-06 15:38 | 42.16679 | 7.19507 | 23932 ft | 459 kts | 286° |
| 2026-05-06 15:38 | 42.17847 | 7.15519 | 23924 ft | 459 kts | 286° |
| 2026-05-06 15:38 | 42.19004 | 7.11567 | 23926 ft | 460 kts | 286° |
| 2026-05-06 15:38 | 42.20173 | 7.07563 | 23923 ft | 459 kts | 286° |
| 2026-05-06 15:39 | 42.21343 | 7.03547 | 23926 ft | 459 kts | 286° |
| 2026-05-06 15:39 | 42.22504 | 6.99557 | 23931 ft | 459 kts | 286° |
| 2026-05-06 15:39 | 42.23674 | 6.95540 | 23929 ft | 459 kts | 286° |
| 2026-05-06 15:39 | 42.24834 | 6.91541 | 23925 ft | 459 kts | 286° |
| 2026-05-06 15:40 | 42.25994 | 6.87538 | 23928 ft | 460 kts | 286° |
| 2026-05-06 15:40 | 42.27146 | 6.83556 | 23927 ft | 459 kts | 286° |
| 2026-05-06 15:40 | 42.28307 | 6.79544 | 23925 ft | 458 kts | 286° |
| 2026-05-06 15:40 | 42.29459 | 6.75544 | 23925 ft | 457 kts | 286° |
| 2026-05-06 15:41 | 42.30607 | 6.71558 | 23922 ft | 457 kts | 286° |
| 2026-05-06 15:41 | 42.31761 | 6.67547 | 23924 ft | 457 kts | 286° |
| 2026-05-06 15:41 | 42.32901 | 6.63573 | 23926 ft | 456 kts | 286° |
| 2026-05-06 15:41 | 42.34045 | 6.59579 | 23928 ft | 456 kts | 285° |
| 2026-05-06 15:42 | 42.35183 | 6.55600 | 23931 ft | 456 kts | 286° |
| 2026-05-06 15:42 | 42.36328 | 6.51594 | 23931 ft | 456 kts | 286° |
| 2026-05-06 15:42 | 42.37456 | 6.47637 | 23926 ft | 456 kts | 286° |
| 2026-05-06 15:42 | 42.38593 | 6.43640 | 23928 ft | 455 kts | 286° |
| 2026-05-06 15:43 | 42.39728 | 6.39654 | 23927 ft | 455 kts | 286° |
| 2026-05-06 15:43 | 42.40860 | 6.35668 | 23927 ft | 455 kts | 285° |
| 2026-05-06 15:43 | 42.41994 | 6.31670 | 23923 ft | 454 kts | 285° |
| 2026-05-06 15:43 | 42.43117 | 6.27698 | 23925 ft | 455 kts | 285° |
| 2026-05-06 15:44 | 42.44237 | 6.23732 | 23924 ft | 454 kts | 285° |
| 2026-05-06 15:44 | 42.45369 | 6.19721 | 23920 ft | 448 kts | 285° |
| 2026-05-06 15:44 | 42.46449 | 6.15925 | 23923 ft | 417 kts | 285° |
| 2026-05-06 15:44 | 42.47449 | 6.12420 | 23919 ft | 382 kts | 284° |
| 2026-05-06 15:45 | 42.48380 | 6.09122 | 23707 ft | 371 kts | 284° |
| 2026-05-06 15:45 | 42.49272 | 6.05919 | 23485 ft | 361 kts | 283° |
| 2026-05-06 15:45 | 42.50142 | 6.02789 | 23060 ft | 357 kts | 284° |
| 2026-05-06 15:45 | 42.51013 | 5.99644 | 22573 ft | 354 kts | 284° |
| 2026-05-06 15:46 | 42.51878 | 5.96528 | 22096 ft | 352 kts | 284° |
| 2026-05-06 15:46 | 42.52731 | 5.93457 | 21612 ft | 350 kts | 284° |
| 2026-05-06 15:46 | 42.53577 | 5.90410 | 21166 ft | 347 kts | 285° |
| 2026-05-06 15:46 | 42.54422 | 5.87368 | 20712 ft | 344 kts | 285° |
| 2026-05-06 15:47 | 42.55255 | 5.84369 | 20237 ft | 342 kts | 285° |
| 2026-05-06 15:47 | 42.56093 | 5.81348 | 19770 ft | 339 kts | 285° |
| 2026-05-06 15:47 | 42.56911 | 5.78400 | 19309 ft | 337 kts | 285° |
| 2026-05-06 15:47 | 42.57731 | 5.75437 | 18820 ft | 335 kts | 285° |
| 2026-05-06 15:48 | 42.58544 | 5.72499 | 18352 ft | 333 kts | 286° |
| 2026-05-06 15:48 | 42.59353 | 5.69565 | 17875 ft | 332 kts | 286° |
| 2026-05-06 15:48 | 42.60158 | 5.66647 | 17388 ft | 330 kts | 287° |
| 2026-05-06 15:48 | 42.60961 | 5.63734 | 16919 ft | 328 kts | 287° |
| 2026-05-06 15:49 | 42.61753 | 5.60856 | 16449 ft | 326 kts | 287° |
| 2026-05-06 15:49 | 42.62532 | 5.58020 | 15979 ft | 325 kts | 288° |
| 2026-05-06 15:49 | 42.63319 | 5.55155 | 15491 ft | 324 kts | 288° |
| 2026-05-06 15:49 | 42.64105 | 5.52290 | 15011 ft | 323 kts | 288° |
| 2026-05-06 15:50 | 42.64881 | 5.49456 | 14540 ft | 321 kts | 289° |
| 2026-05-06 15:50 | 42.65653 | 5.46639 | 14079 ft | 320 kts | 289° |
| 2026-05-06 15:50 | 42.66421 | 5.43831 | 13626 ft | 318 kts | 289° |
| 2026-05-06 15:50 | 42.67194 | 5.41001 | 13164 ft | 316 kts | 289° |
| 2026-05-06 15:51 | 42.67949 | 5.38237 | 12724 ft | 314 kts | 289° |
| 2026-05-06 15:51 | 42.68705 | 5.35462 | 12282 ft | 312 kts | 289° |
| 2026-05-06 15:51 | 42.69603 | 5.32811 | 11818 ft | 313 kts | 301° |
| 2026-05-06 15:51 | 42.71056 | 5.30612 | 11380 ft | 314 kts | 319° |
| 2026-05-06 15:52 | 42.72873 | 5.28992 | 10965 ft | 313 kts | 326° |
| 2026-05-06 15:52 | 42.74755 | 5.27504 | 10538 ft | 311 kts | 327° |
| 2026-05-06 15:52 | 42.76630 | 5.26030 | 10116 ft | 309 kts | 327° |
| 2026-05-06 15:52 | 42.78465 | 5.24582 | 9706 ft | 306 kts | 327° |
| 2026-05-06 15:53 | 42.80301 | 5.23125 | 9387 ft | 300 kts | 327° |
| 2026-05-06 15:53 | 42.82058 | 5.21726 | 9205 ft | 290 kts | 327° |
| 2026-05-06 15:53 | 42.83784 | 5.20347 | 9022 ft | 281 kts | 327° |
| 2026-05-06 15:53 | 42.85440 | 5.19022 | 8810 ft | 273 kts | 327° |
| 2026-05-06 15:54 | 42.87068 | 5.17717 | 8477 ft | 270 kts | 327° |
| 2026-05-06 15:54 | 42.88673 | 5.16429 | 8103 ft | 269 kts | 327° |
| 2026-05-06 15:54 | 42.90275 | 5.15142 | 7727 ft | 268 kts | 328° |
| 2026-05-06 15:54 | 42.91888 | 5.13848 | 7367 ft | 266 kts | 328° |
| 2026-05-06 15:55 | 42.93536 | 5.12754 | 6991 ft | 267 kts | 345° |
| 2026-05-06 15:55 | 42.95377 | 5.12736 | 6598 ft | 270 kts | 12° |
| 2026-05-06 15:55 | 42.97087 | 5.13770 | 6253 ft | 270 kts | 26° |
| 2026-05-06 15:55 | 42.98734 | 5.15013 | 5889 ft | 269 kts | 26° |
| 2026-05-06 15:56 | 43.00364 | 5.16237 | 5514 ft | 269 kts | 26° |
| 2026-05-06 15:56 | 43.02004 | 5.17462 | 5140 ft | 268 kts | 26° |
| 2026-05-06 15:56 | 43.03639 | 5.18677 | 4789 ft | 266 kts | 26° |
| 2026-05-06 15:56 | 43.05262 | 5.19880 | 4439 ft | 265 kts | 26° |
| 2026-05-06 15:57 | 43.06887 | 5.21082 | 4084 ft | 263 kts | 26° |
| 2026-05-06 15:57 | 43.08483 | 5.22265 | 3738 ft | 262 kts | 26° |
| 2026-05-06 15:57 | 43.10076 | 5.23445 | 3384 ft | 261 kts | 26° |
| 2026-05-06 15:57 | 43.11672 | 5.24627 | 3026 ft | 260 kts | 26° |
| 2026-05-06 15:58 | 43.13240 | 5.25789 | 2911 ft | 259 kts | 26° |
| 2026-05-06 15:58 | 43.14838 | 5.26975 | 2910 ft | 261 kts | 26° |
| 2026-05-06 15:58 | 43.16448 | 5.28172 | 2907 ft | 261 kts | 26° |
| 2026-05-06 15:58 | 43.18033 | 5.29348 | 2904 ft | 260 kts | 26° |
| 2026-05-06 15:59 | 43.19594 | 5.30511 | 2894 ft | 246 kts | 26° |
| 2026-05-06 15:59 | 43.21052 | 5.31598 | 2890 ft | 231 kts | 25° |
| 2026-05-06 15:59 | 43.22446 | 5.32606 | 2893 ft | 222 kts | 19° |
| 2026-05-06 15:59 | 43.23875 | 5.33035 | 2928 ft | 199 kts | 359° |
| 2026-05-06 16:00 | 43.25201 | 5.33024 | 2944 ft | 185 kts | 355° |
| 2026-05-06 16:00 | 43.26469 | 5.32968 | 2916 ft | 183 kts | 354° |
| 2026-05-06 16:00 | 43.27750 | 5.32912 | 2907 ft | 184 kts | 355° |
| 2026-05-06 16:00 | 43.29033 | 5.32841 | 2903 ft | 183 kts | 351° |
| 2026-05-06 16:01 | 43.30283 | 5.32530 | 2900 ft | 177 kts | 343° |
| 2026-05-06 16:01 | 43.31414 | 5.32115 | 2911 ft | 163 kts | 341° |
| 2026-05-06 16:01 | 43.32497 | 5.31694 | 2900 ft | 162 kts | 341° |
| 2026-05-06 16:01 | 43.33565 | 5.31281 | 2886 ft | 153 kts | 341° |
| 2026-05-06 16:02 | 43.34534 | 5.30910 | 2859 ft | 140 kts | 341° |
| 2026-05-06 16:02 | 43.35474 | 5.30549 | 2873 ft | 139 kts | 341° |
| 2026-05-06 16:02 | 43.36404 | 5.30184 | 2571 ft | 142 kts | 340° |
| 2026-05-06 16:02 | 43.37322 | 5.29685 | 2099 ft | 143 kts | 327° |
| 2026-05-06 16:03 | 43.38132 | 5.28939 | 1716 ft | 139 kts | 320° |
| 2026-05-06 16:03 | 43.38860 | 5.28135 | 1606 ft | 135 kts | 316° |
| 2026-05-06 16:03 | 43.39584 | 5.27275 | 1315 ft | 136 kts | 315° |
| 2026-05-06 16:03 | 43.40257 | 5.26389 | 1112 ft | 135 kts | 311° |
| 2026-05-06 16:04 | 43.40908 | 5.25456 | 853 ft | 134 kts | 309° |
| 2026-05-06 16:04 | 43.41546 | 5.24524 | 620 ft | 134 kts | 309° |
| 2026-05-06 16:04 | 43.42197 | 5.23598 | 386 ft | 134 kts | 310° |
| 2026-05-06 16:04 | 43.42847 | 5.22685 | 165 ft | 133 kts | 310° |
| 2026-05-06 16:05 | 43.43493 | 5.21770 | 47 ft | 132 kts | 309° |
| 2026-05-06 16:05 | 43.44036 | 5.20974 | 26 ft | 91 kts | 313° |
| 2026-05-06 16:05 | 43.44360 | 5.20523 | 21 ft | 55 kts | 315° |
| 2026-05-06 16:05 | 43.44577 | 5.20229 | 19 ft | 30 kts | 343° |
| 2026-05-06 16:06 | 43.44642 | 5.20250 | 19 ft | 3 kts | 38° |
| 2026-05-06 16:06 | 43.44661 | 5.20278 | 19 ft | 5 kts | 56° |
| 2026-05-06 16:06 | 43.44672 | 5.20331 | 19 ft | 6 kts | 97° |
| 2026-05-06 16:06 | 43.44644 | 5.20383 | 19 ft | 7 kts | 134° |
| 2026-05-06 16:07 | 43.44606 | 5.20437 | 19 ft | 8 kts | 135° |
| 2026-05-06 16:07 | 43.44564 | 5.20495 | 20 ft | 8 kts | 131° |
| 2026-05-06 16:07 | 43.44521 | 5.20561 | 20 ft | 6 kts | 133° |
| 2026-05-06 16:07 | 43.44519 | 5.20563 | 20 ft | 0 kts | 133° |
| 2026-05-06 16:08 | 43.44518 | 5.20565 | 20 ft | 1 kts | 133° |
| 2026-05-06 16:08 | 43.44492 | 5.20603 | 20 ft | 8 kts | 134° |
| 2026-05-06 16:08 | 43.44439 | 5.20676 | 21 ft | 14 kts | 134° |
| 2026-05-06 16:08 | 43.44351 | 5.20801 | 22 ft | 20 kts | 133° |
| 2026-05-06 16:09 | 43.44273 | 5.20967 | 24 ft | 19 kts | 124° |
| 2026-05-06 16:09 | 43.44189 | 5.21104 | 27 ft | 18 kts | 135° |
| 2026-05-06 16:09 | 43.44102 | 5.21225 | 29 ft | 16 kts | 134° |
| 2026-05-06 16:09 | 43.44020 | 5.21343 | 31 ft | 20 kts | 134° |
| 2026-05-06 16:10 | 43.43917 | 5.21520 | 35 ft | 24 kts | 91° |
| 2026-05-06 16:10 | 43.44021 | 5.21688 | 36 ft | 23 kts | 43° |
| 2026-05-06 16:10 | 43.44113 | 5.21819 | 36 ft | 12 kts | 65° |
| 2026-05-06 16:10 | 43.44078 | 5.21908 | 38 ft | 10 kts | 134° |
| 2026-05-06 16:11 | 43.44031 | 5.21974 | 40 ft | 9 kts | 134° |
| 2026-05-06 16:11 | 43.44018 | 5.22014 | 40 ft | 5 kts | 66° |
| 2026-05-06 16:11 | 43.44040 | 5.22056 | 41 ft | 6 kts | 51° |
| 2026-05-06 16:11 | 43.44054 | 5.22081 | 41 ft | 0 kts | 51° |